createdAt,value
2017-09-28T00:01:06.157Z,16.93
2017-09-28T00:03:35.170Z,16.79
2017-09-28T00:06:04.573Z,16.82
2017-09-28T00:08:33.721Z,16.74
2017-09-28T00:11:01.880Z,16.56
2017-09-28T00:13:29.439Z,16.59
2017-09-28T00:15:56.974Z,16.65
2017-09-28T00:18:24.529Z,16.70
2017-09-28T00:20:53.076Z,16.69
2017-09-28T00:23:20.683Z,16.58
2017-09-28T00:25:48.276Z,16.55
2017-09-28T00:28:15.920Z,16.52
2017-09-28T00:30:43.502Z,16.46
2017-09-28T00:33:11.456Z,16.49
2017-09-28T00:35:39.031Z,16.52
2017-09-28T00:38:06.802Z,16.41
2017-09-28T00:40:35.665Z,16.38
2017-09-28T00:43:03.256Z,16.18
2017-09-28T00:45:30.932Z,16.22
2017-09-28T00:47:58.473Z,16.29
2017-09-28T00:50:26.049Z,16.29
2017-09-28T00:52:53.640Z,16.32
2017-09-28T00:55:22.162Z,16.31
2017-09-28T00:57:50.028Z,16.33
2017-09-28T01:00:17.577Z,16.20
2017-09-28T01:02:46.060Z,16.07
2017-09-28T01:05:13.662Z,16.19
2017-09-28T01:07:41.606Z,16.21
2017-09-28T01:10:09.165Z,16.10
2017-09-28T01:12:37.425Z,16.16
2017-09-28T01:15:05.006Z,16.19
2017-09-28T01:17:32.626Z,16.18
2017-09-28T01:20:00.240Z,16.20
2017-09-28T01:22:27.811Z,16.20
2017-09-28T01:24:55.388Z,16.16
2017-09-28T01:27:22.896Z,16.11
2017-09-28T01:29:50.520Z,16.11
2017-09-28T01:32:19.610Z,16.08
2017-09-28T01:34:48.070Z,16.10
2017-09-28T01:37:15.832Z,16.13
2017-09-28T01:39:43.456Z,16.16
2017-09-28T01:42:11.069Z,16.11
2017-09-28T01:44:38.726Z,16.06
2017-09-28T01:47:06.344Z,15.96
2017-09-28T01:49:34.716Z,15.94
2017-09-28T01:52:02.841Z,15.97
2017-09-28T01:54:30.369Z,15.92
2017-09-28T01:56:59.293Z,15.87
2017-09-28T01:59:26.953Z,15.79
2017-09-28T02:01:58.366Z,15.81
2017-09-28T02:04:25.945Z,15.76
2017-09-28T02:06:53.534Z,15.79
2017-09-28T02:09:21.131Z,15.80
2017-09-28T02:11:49.476Z,15.84
2017-09-28T02:14:19.861Z,15.80
2017-09-28T02:16:47.468Z,15.73
2017-09-28T02:19:14.984Z,15.73
2017-09-28T02:21:42.563Z,15.75
2017-09-28T02:24:10.924Z,15.79
2017-09-28T02:26:39.257Z,15.82
2017-09-28T02:29:08.021Z,15.73
2017-09-28T02:31:37.290Z,15.72
2017-09-28T02:34:06.082Z,15.65
2017-09-28T02:36:34.467Z,15.70
2017-09-28T02:39:02.959Z,15.70
2017-09-28T02:41:30.560Z,15.67
2017-09-28T02:43:58.664Z,15.67
2017-09-28T02:46:26.241Z,15.60
2017-09-28T02:48:54.079Z,15.54
2017-09-28T02:51:22.191Z,15.58
2017-09-28T02:53:49.925Z,15.59
2017-09-28T02:56:17.503Z,15.59
2017-09-28T02:58:45.078Z,15.53
2017-09-28T03:01:12.870Z,15.40
2017-09-28T03:03:40.462Z,15.44
2017-09-28T03:06:08.119Z,15.38
2017-09-28T03:08:35.634Z,15.39
2017-09-28T03:11:04.198Z,15.47
2017-09-28T03:13:31.829Z,15.47
2017-09-28T03:15:59.417Z,15.48
2017-09-28T03:18:27.678Z,15.47
2017-09-28T03:20:55.249Z,15.35
2017-09-28T03:23:22.813Z,15.35
2017-09-28T03:25:50.895Z,15.36
2017-09-28T03:28:18.453Z,15.39
2017-09-28T03:30:46.554Z,15.30
2017-09-28T03:33:14.163Z,15.37
2017-09-28T03:35:41.743Z,15.32
2017-09-28T03:38:10.141Z,15.33
2017-09-28T03:40:37.690Z,15.30
2017-09-28T03:43:05.699Z,15.26
2017-09-28T03:45:36.237Z,15.17
2017-09-28T03:48:03.928Z,15.07
2017-09-28T03:50:33.822Z,15.07
2017-09-28T03:53:01.414Z,15.03
2017-09-28T03:55:29.490Z,15.01
2017-09-28T03:57:57.962Z,15.02
2017-09-28T04:00:27.536Z,14.99
2017-09-28T04:02:55.676Z,14.99
2017-09-28T04:05:24.989Z,14.78
2017-09-28T04:07:56.136Z,14.96
2017-09-28T04:10:23.806Z,14.89
2017-09-28T04:12:51.411Z,14.89
2017-09-28T04:15:18.996Z,14.92
2017-09-28T04:17:46.812Z,14.94
2017-09-28T04:20:14.921Z,14.92
2017-09-28T04:22:42.965Z,14.94
2017-09-28T04:25:11.004Z,14.96
2017-09-28T04:27:38.872Z,14.96
2017-09-28T04:30:09.522Z,14.97
2017-09-28T04:32:40.055Z,15.00
2017-09-28T04:35:07.574Z,14.93
2017-09-28T04:37:35.080Z,14.99
2017-09-28T04:40:03.558Z,15.02
2017-09-28T04:42:31.102Z,14.97
2017-09-28T04:44:59.329Z,14.97
2017-09-28T04:47:27.056Z,14.95
2017-09-28T04:49:54.615Z,14.91
2017-09-28T04:52:22.884Z,14.91
2017-09-28T04:54:50.451Z,14.90
2017-09-28T04:57:17.991Z,14.93
2017-09-28T04:59:46.602Z,14.89
2017-09-28T05:02:14.925Z,14.87
2017-09-28T05:04:42.557Z,14.85
2017-09-28T05:07:10.038Z,14.83
2017-09-28T05:09:37.528Z,14.84
2017-09-28T05:12:05.017Z,14.85
2017-09-28T05:14:32.508Z,14.86
2017-09-28T05:17:00.012Z,14.88
2017-09-28T05:19:27.491Z,14.90
2017-09-28T05:21:55.217Z,14.85
2017-09-28T05:24:22.944Z,14.84
2017-09-28T05:26:50.488Z,14.85
2017-09-28T05:29:18.016Z,14.90
2017-09-28T05:31:45.590Z,14.92
2017-09-28T05:34:13.201Z,14.89
2017-09-28T05:36:40.764Z,14.91
2017-09-28T05:39:08.435Z,14.97
2017-09-28T05:41:36.441Z,14.91
2017-09-28T05:44:04.293Z,14.93
2017-09-28T05:46:31.827Z,14.95
2017-09-28T05:48:59.588Z,15.01
2017-09-28T05:51:27.272Z,15.09
2017-09-28T05:53:54.842Z,15.10
2017-09-28T05:56:22.491Z,15.14
2017-09-28T05:58:50.074Z,15.22
2017-09-28T06:01:18.609Z,15.31
2017-09-28T06:03:46.170Z,15.25
2017-09-28T06:06:14.480Z,15.23
2017-09-28T06:08:42.023Z,15.33
2017-09-28T06:11:09.717Z,15.30
2017-09-28T06:13:37.312Z,15.38
2017-09-28T06:16:04.816Z,15.43
2017-09-28T06:18:32.397Z,15.43
2017-09-28T06:20:59.942Z,15.54
2017-09-28T06:23:27.529Z,15.67
2017-09-28T06:25:55.107Z,15.81
2017-09-28T06:28:22.664Z,15.82
2017-09-28T06:30:50.198Z,16.13
2017-09-28T06:33:18.636Z,16.40
2017-09-28T06:35:46.287Z,16.68
2017-09-28T06:38:13.872Z,17.00
2017-09-28T06:40:41.433Z,18.16
2017-09-28T06:43:09.015Z,18.80
2017-09-28T06:45:36.777Z,19.96
2017-09-28T06:48:04.384Z,20.60
2017-09-28T06:50:31.944Z,21.26
2017-09-28T06:52:59.962Z,21.50
2017-09-28T06:55:27.526Z,21.40
2017-09-28T06:57:55.251Z,20.98
2017-09-28T07:00:23.528Z,21.32
2017-09-28T07:02:51.041Z,22.12
2017-09-28T07:05:18.719Z,22.44
2017-09-28T07:07:46.544Z,21.85
2017-09-28T07:10:14.854Z,21.40
2017-09-28T07:12:42.386Z,21.21
2017-09-28T07:15:10.147Z,21.15
2017-09-28T07:17:37.864Z,21.48
2017-09-28T07:20:05.457Z,21.70
2017-09-28T07:22:32.979Z,23.15
2017-09-28T07:25:01.255Z,22.68
2017-09-28T07:27:29.410Z,23.04
2017-09-28T07:29:56.908Z,23.61
2017-09-28T07:32:24.468Z,23.91
2017-09-28T07:34:51.959Z,23.21
2017-09-28T07:37:19.529Z,22.83
2017-09-28T07:39:47.174Z,22.46
2017-09-28T07:44:51.322Z,22.55
2017-09-28T07:47:18.805Z,22.34
2017-09-28T07:49:46.268Z,22.02
2017-09-28T07:52:13.745Z,22.06
2017-09-28T07:54:41.406Z,21.71
2017-09-28T07:57:09.360Z,22.23
2017-09-28T07:59:36.861Z,22.83
2017-09-28T08:02:11.449Z,22.76
2017-09-28T08:04:39.007Z,22.69
2017-09-28T08:07:06.590Z,23.53
2017-09-28T08:09:34.424Z,24.79
2017-09-28T08:12:02.299Z,25.95
2017-09-28T08:14:30.093Z,26.80
2017-09-28T08:16:57.636Z,27.36
2017-09-28T08:19:25.190Z,26.93
2017-09-28T08:21:52.813Z,26.47
2017-09-28T08:24:20.364Z,25.85
2017-09-28T08:26:48.060Z,25.60
2017-09-28T08:29:16.704Z,25.55
2017-09-28T08:31:44.278Z,25.52
2017-09-28T08:34:11.815Z,25.46
2017-09-28T08:36:39.401Z,25.03
2017-09-28T08:39:09.116Z,25.00
2017-09-28T08:41:36.696Z,24.64
2017-09-28T08:44:06.130Z,23.68
2017-09-28T09:18:29.862Z,25.54
2017-09-28T09:20:57.587Z,25.56
2017-09-28T10:44:52.361Z,22.99
2017-09-28T10:47:20.562Z,23.35
2017-09-28T10:49:49.530Z,23.30
2017-09-28T10:52:17.137Z,23.35
2017-09-28T10:54:44.707Z,23.28
2017-09-28T10:57:14.756Z,23.29
2017-09-28T10:59:42.696Z,23.35
2017-09-28T11:02:10.490Z,23.34
2017-09-28T11:04:38.820Z,23.51
2017-09-28T11:07:06.421Z,23.56
2017-09-28T11:09:34.065Z,23.58
2017-09-28T11:12:01.712Z,23.72
2017-09-28T11:14:29.391Z,23.97
2017-09-28T11:16:56.984Z,24.09
2017-09-28T11:19:24.513Z,24.33
2017-09-28T11:21:52.121Z,24.56
2017-09-28T11:24:19.640Z,24.79
2017-09-28T11:26:47.149Z,25.07
2017-09-28T11:29:14.677Z,25.48
2017-09-28T11:31:42.259Z,25.91
2017-09-28T11:34:09.787Z,26.24
2017-09-28T11:36:37.306Z,26.40
2017-09-28T11:39:04.849Z,26.52
2017-09-28T11:41:32.416Z,26.93
2017-09-28T11:43:59.932Z,27.98
2017-09-28T11:46:28.352Z,27.98
2017-09-28T11:48:55.840Z,29.18
2017-09-28T11:51:23.351Z,28.87
2017-09-28T11:53:50.898Z,28.31
2017-09-28T11:56:18.402Z,27.85
2017-09-28T11:58:45.944Z,27.69
2017-09-28T12:01:13.497Z,27.83
2017-09-28T12:03:41.059Z,28.28
2017-09-28T12:06:09.032Z,28.35
2017-09-28T12:08:36.747Z,29.11
2017-09-28T12:11:07.461Z,29.92
2017-09-28T12:13:35.482Z,30.68
2017-09-28T12:16:07.538Z,31.75
2017-09-28T12:21:54.336Z,31.94
2017-09-28T12:24:25.988Z,32.22
2017-09-28T12:26:53.756Z,31.85
2017-09-28T12:29:26.109Z,31.73
2017-09-28T12:31:53.844Z,30.75
2017-09-28T12:34:21.582Z,30.79
2017-09-28T12:36:55.725Z,29.94
2017-09-28T12:39:24.901Z,30.31
2017-09-28T12:41:52.665Z,30.37
2017-09-28T12:48:48.011Z,30.60
2017-09-28T12:57:55.647Z,29.85
2017-09-28T13:00:23.149Z,28.39
2017-09-28T13:02:51.778Z,28.36
2017-09-28T13:05:20.830Z,28.32
2017-09-28T13:07:48.384Z,28.80
2017-09-28T13:10:16.130Z,28.65
2017-09-28T13:12:45.098Z,28.20
2017-09-28T13:15:13.038Z,28.24
2017-09-28T13:17:40.593Z,28.94
2017-09-28T13:20:08.270Z,29.43
2017-09-28T13:22:35.767Z,29.74
2017-09-28T13:25:03.360Z,29.45
2017-09-28T13:27:34.721Z,29.74
2017-09-28T13:30:04.168Z,29.74
2017-09-28T13:32:33.694Z,29.56
2017-09-28T13:35:04.037Z,29.39
2017-09-28T13:37:33.212Z,29.22
2017-09-28T13:40:02.720Z,29.22
2017-09-28T13:42:30.332Z,29.34
2017-09-28T13:44:58.764Z,29.31
2017-09-28T13:47:27.092Z,29.84
2017-09-28T13:49:56.225Z,30.17
2017-09-28T13:52:23.913Z,30.42
2017-09-28T13:54:52.567Z,30.71
2017-09-28T13:57:21.053Z,30.65
2017-09-28T13:59:51.170Z,30.75
2017-09-28T14:02:18.839Z,30.49
2017-09-28T14:04:48.044Z,29.94
2017-09-28T14:07:16.256Z,29.76
2017-09-28T14:09:45.585Z,29.51
2017-09-28T14:12:13.311Z,29.22
2017-09-28T14:14:42.154Z,29.12
2017-09-28T14:17:09.871Z,28.70
2017-09-28T14:19:37.435Z,28.63
2017-09-28T14:22:06.031Z,28.68
2017-09-28T14:24:33.913Z,28.61
2017-09-28T14:27:02.828Z,28.61
2017-09-28T14:29:30.353Z,28.65
2017-09-28T14:31:58.026Z,28.52
2017-09-28T14:34:25.590Z,28.42
2017-09-28T14:36:54.373Z,28.28
2017-09-28T14:39:21.990Z,28.11
2017-09-28T14:41:49.906Z,28.00
2017-09-28T14:44:17.497Z,27.56
2017-09-28T14:46:45.073Z,27.55
2017-09-28T14:49:12.986Z,27.52
2017-09-28T14:51:40.654Z,27.33
2017-09-28T14:54:08.184Z,27.63
2017-09-28T14:56:35.852Z,27.40
2017-09-28T14:59:04.659Z,27.60
2017-09-28T15:01:33.092Z,27.64
2017-09-28T15:04:00.701Z,27.60
2017-09-28T15:06:28.586Z,27.52
2017-09-28T15:08:56.495Z,27.34
2017-09-28T15:11:24.139Z,27.17
2017-09-28T15:13:51.664Z,26.84
2017-09-28T15:16:19.251Z,26.93
2017-09-28T15:18:46.815Z,26.90
2017-09-28T15:21:14.931Z,26.65
2017-09-28T15:23:42.499Z,26.78
2017-09-28T15:26:10.115Z,26.73
2017-09-28T15:28:37.617Z,26.74
2017-09-28T15:31:05.120Z,26.70
2017-09-28T15:33:32.663Z,26.68
2017-09-28T15:36:00.237Z,26.61
2017-09-28T15:38:27.821Z,26.45
2017-09-28T15:40:55.364Z,26.50
2017-09-28T15:43:22.969Z,26.40
2017-09-28T15:45:50.758Z,26.39
2017-09-28T15:48:18.270Z,26.37
2017-09-28T15:50:45.956Z,26.36
2017-09-28T15:53:14.234Z,26.28
2017-09-28T15:55:41.754Z,26.07
2017-09-28T15:58:10.304Z,25.97
2017-09-28T16:00:37.863Z,25.95
2017-09-28T16:03:05.411Z,25.85
2017-09-28T16:05:33.712Z,25.78
2017-09-28T16:08:01.438Z,25.77
2017-09-28T16:10:29.126Z,25.74
2017-09-28T16:12:56.757Z,25.70
2017-09-28T16:15:24.391Z,25.65
2017-09-28T16:17:51.947Z,25.59
2017-09-28T16:20:19.466Z,25.55
2017-09-28T16:22:47.146Z,25.39
2017-09-28T16:25:17.260Z,25.31
2017-09-28T16:30:32.134Z,25.06
2017-09-28T16:32:59.854Z,25.10
2017-09-28T16:35:30.687Z,25.02
2017-09-28T16:37:58.379Z,25.02
2017-09-28T16:40:27.195Z,24.99
2017-09-28T16:42:57.974Z,24.97
2017-09-28T16:45:28.815Z,24.93
2017-09-28T16:47:56.422Z,24.90
2017-09-28T16:50:24.151Z,24.86
2017-09-28T16:52:53.477Z,24.82
2017-09-28T16:55:21.404Z,24.76
2017-09-28T16:57:49.200Z,24.73
2017-09-28T17:00:17.859Z,24.68
2017-09-28T17:02:45.387Z,24.64
2017-09-28T17:05:13.551Z,24.60
2017-09-28T17:07:41.078Z,24.56
2017-09-28T17:10:08.546Z,24.53
2017-09-28T17:12:36.017Z,24.47
2017-09-28T17:15:03.541Z,24.40
2017-09-28T17:17:31.203Z,24.28
2017-09-28T17:19:58.874Z,24.16
2017-09-28T17:22:26.509Z,24.08
2017-09-28T17:24:54.042Z,24.04
2017-09-28T17:27:22.373Z,23.87
2017-09-28T17:29:49.893Z,23.87
2017-09-28T17:32:17.972Z,23.81
2017-09-28T17:34:45.577Z,23.73
2017-09-28T17:37:13.166Z,23.64
2017-09-28T17:39:40.821Z,23.56
2017-09-28T17:42:08.397Z,23.53
2017-09-28T17:44:36.228Z,23.43
2017-09-28T17:47:04.019Z,23.46
2017-09-28T17:49:31.805Z,23.36
2017-09-28T17:51:59.406Z,23.21
2017-09-28T17:54:28.066Z,23.06
2017-09-28T17:56:55.667Z,22.95
2017-09-28T17:59:23.210Z,22.94
2017-09-28T18:01:52.310Z,22.93
2017-09-28T18:04:19.945Z,22.92
2017-09-28T18:06:47.786Z,22.91
2017-09-28T18:09:16.005Z,22.89
2017-09-28T18:11:44.051Z,22.82
2017-09-28T18:14:11.661Z,22.68
2017-09-28T18:16:39.203Z,22.57
2017-09-28T18:19:06.850Z,22.53
2017-09-28T18:21:36.129Z,22.53
2017-09-28T18:24:04.661Z,22.48
2017-09-28T18:26:32.985Z,22.33
2017-09-28T18:29:00.517Z,22.20
2017-09-28T18:31:28.058Z,22.21
2017-09-28T18:33:56.672Z,22.56
2017-09-28T18:36:24.710Z,22.38
2017-09-28T18:38:52.401Z,22.27
2017-09-28T18:41:20.872Z,22.23
2017-09-28T18:43:48.925Z,22.22
2017-09-28T18:46:16.490Z,22.16
2017-09-28T18:48:44.873Z,22.11
2017-09-28T18:51:13.931Z,22.10
2017-09-28T18:53:43.372Z,22.10
2017-09-28T18:56:11.116Z,21.77
2017-09-28T18:58:38.783Z,21.99
2017-09-28T19:01:07.442Z,21.91
2017-09-28T19:03:36.008Z,21.84
2017-09-28T19:06:04.727Z,21.80
2017-09-28T19:08:32.448Z,21.76
2017-09-28T19:11:00.350Z,21.67
2017-09-28T19:13:28.212Z,21.64
2017-09-28T19:15:55.882Z,21.59
2017-09-28T19:18:23.539Z,21.56
2017-09-28T19:20:51.375Z,21.54
2017-09-28T19:23:20.079Z,21.49
2017-09-28T19:25:48.437Z,21.32
2017-09-28T19:28:20.646Z,21.79
2017-09-28T19:30:50.744Z,21.63
2017-09-28T19:33:19.403Z,21.48
2017-09-28T19:35:51.183Z,21.49
2017-09-28T19:38:18.806Z,21.42
2017-09-28T19:40:46.583Z,21.21
2017-09-28T19:43:14.156Z,21.32
2017-09-28T19:45:42.651Z,21.33
2017-09-28T19:48:10.829Z,21.32
2017-09-28T19:50:38.738Z,21.28
2017-09-28T19:53:06.577Z,21.23
2017-09-28T19:55:34.960Z,21.21
2017-09-28T19:58:04.127Z,21.20
2017-09-28T20:00:34.271Z,21.17
2017-09-28T20:03:02.138Z,21.06
2017-09-28T20:05:30.685Z,20.99
2017-09-28T20:07:58.388Z,20.89
2017-09-28T20:10:26.617Z,20.91
2017-09-28T20:12:55.250Z,20.90
2017-09-28T20:15:24.983Z,20.91
2017-09-28T20:17:52.943Z,20.90
2017-09-28T20:20:21.615Z,20.90
2017-09-28T20:22:50.652Z,20.91
2017-09-28T20:25:21.577Z,20.87
2017-09-28T20:27:50.436Z,20.75
2017-09-28T20:30:18.180Z,20.68
2017-09-28T20:32:45.961Z,20.48
2017-09-28T20:35:16.033Z,20.39
2017-09-28T20:37:45.284Z,20.37
2017-09-28T20:40:13.787Z,20.38
2017-09-28T20:42:42.622Z,20.33
2017-09-28T20:45:11.964Z,20.42
2017-09-28T20:47:40.641Z,20.46
2017-09-28T20:50:08.314Z,20.49
2017-09-28T20:52:36.007Z,20.11
2017-09-28T20:55:03.864Z,20.52
2017-09-28T20:57:31.417Z,20.56
2017-09-28T20:59:59.255Z,20.60
2017-09-28T21:02:26.882Z,20.59
2017-09-28T21:04:54.741Z,20.29
2017-09-28T21:07:23.004Z,20.30
2017-09-28T21:09:50.960Z,20.14
2017-09-28T21:12:18.659Z,20.10
2017-09-28T21:14:46.520Z,20.09
2017-09-28T21:17:14.214Z,20.05
2017-09-28T21:19:41.838Z,20.07
2017-09-28T21:22:11.042Z,20.08
2017-09-28T21:24:38.982Z,20.06
2017-09-28T21:27:06.658Z,20.11
2017-09-28T21:29:34.286Z,20.14
2017-09-28T21:32:01.875Z,20.15
2017-09-28T21:34:29.533Z,20.14
2017-09-28T21:36:57.102Z,20.15
2017-09-28T21:39:24.655Z,20.14
2017-09-28T21:41:52.146Z,20.19
2017-09-28T21:44:19.675Z,20.20
2017-09-28T21:46:47.410Z,20.16
2017-09-28T21:49:15.022Z,20.11
2017-09-28T21:51:42.546Z,20.09
2017-09-28T21:54:10.103Z,19.92
2017-09-28T21:56:38.362Z,20.05
2017-09-28T21:59:07.096Z,20.01
2017-09-28T22:01:35.986Z,19.97
2017-09-28T22:04:03.590Z,19.91
2017-09-28T22:06:31.253Z,19.85
2017-09-28T22:08:58.807Z,19.85
2017-09-28T22:11:26.338Z,19.74
2017-09-28T22:13:53.840Z,19.67
2017-09-28T22:16:21.555Z,19.69
2017-09-28T22:18:49.988Z,19.70
2017-09-28T22:21:18.891Z,19.73
2017-09-28T22:23:47.044Z,19.75
2017-09-28T22:26:14.649Z,19.68
2017-09-28T22:28:42.257Z,19.65
2017-09-28T22:31:09.826Z,19.58
2017-09-28T22:33:37.425Z,19.56
2017-09-28T22:36:04.950Z,19.57
2017-09-28T22:38:32.548Z,19.54
2017-09-28T22:41:00.064Z,19.41
2017-09-28T22:43:27.607Z,19.43
2017-09-28T22:45:56.670Z,19.46
2017-09-28T22:48:24.185Z,19.46
2017-09-28T22:50:51.817Z,19.43
2017-09-28T22:53:19.313Z,19.41
2017-09-28T22:55:46.818Z,19.31
2017-09-28T22:58:14.908Z,19.27
2017-09-28T23:00:42.423Z,19.26
2017-09-28T23:03:10.801Z,19.22
2017-09-28T23:05:38.383Z,19.12
2017-09-28T23:08:06.890Z,19.02
2017-09-28T23:10:34.575Z,19.03
2017-09-28T23:13:02.331Z,19.01
2017-09-28T23:15:29.892Z,19.00
2017-09-28T23:17:57.459Z,18.79
2017-09-28T23:20:25.048Z,18.89
2017-09-28T23:22:53.469Z,18.90
2017-09-28T23:25:21.012Z,18.90
2017-09-28T23:27:48.620Z,18.94
2017-09-28T23:30:16.212Z,18.94
2017-09-28T23:32:43.853Z,18.96
2017-09-28T23:35:11.387Z,18.89
2017-09-28T23:37:38.993Z,18.89
2017-09-28T23:40:06.666Z,18.85
2017-09-28T23:42:34.218Z,18.85
2017-09-28T23:45:01.775Z,18.80
2017-09-28T23:47:29.380Z,18.80
2017-09-28T23:49:57.556Z,18.79
2017-09-28T23:52:25.920Z,18.75
2017-09-28T23:54:53.417Z,18.68
2017-09-28T23:57:24.708Z,18.71
2017-09-28T23:59:53.366Z,18.76
